Time;durP1;ratioP1;P1;durP2;ratioP2;P2;SDS_P1;SDS_P2;PMS_P1;PMS_P2;Temp;Humidity;BMP_temperature;BMP_pressure;BME280_temperature;BME280_humidity;BME280_pressure;Samples;Min_cycle;Max_cycle;Signal;HPM_P1;HPM_P2
2022/05/07 00:00:33;;;;;;;53.35;33.65;;;;;;;;;;6161190;23;20025;-89
2022/05/07 00:03:00;;;;;;;49.17;32.13;;;;;;;;;;6160492;23;20021;-90
2022/05/07 00:05:26;;;;;;;51.17;32.55;;;;;;;;;;6161062;23;20027;-90
2022/05/07 00:07:53;;;;;;;50.40;31.92;;;;;;;;;;6185733;23;20400;-92
2022/05/07 00:10:20;;;;;;;53.63;32.83;;;;;;;;;;6160614;23;20048;-91
2022/05/07 00:12:46;;;;;;;48.22;33.10;;;;;;;;;;6161721;23;20021;-90
2022/05/07 00:15:12;;;;;;;52.67;33.33;;;;;;;;;;6160222;23;20032;-90
2022/05/07 00:20:22;;;;;;;51.63;33.85;;;;;;;;;;6185196;23;20028;-90
2022/05/07 00:22:48;;;;;;;45.42;32.60;;;;;;;;;;6160114;23;20025;-89
2022/05/07 00:25:14;;;;;;;53.85;33.03;;;;;;;;;;6185083;23;20021;-89
2022/05/07 00:27:40;;;;;;;50.70;32.05;;;;;;;;;;6160213;23;20025;-90
2022/05/07 00:30:07;;;;;;;49.95;32.47;;;;;;;;;;6160197;23;20025;-89
2022/05/07 00:32:33;;;;;;;48.35;30.42;;;;;;;;;;6161442;23;20079;-90
2022/05/07 00:34:59;;;;;;;50.72;33.58;;;;;;;;;;6185815;23;20071;-90
2022/05/07 00:37:26;;;;;;;45.58;32.00;;;;;;;;;;6162778;23;20114;-92
2022/05/07 00:39:52;;;;;;;55.20;35.38;;;;;;;;;;6187211;23;20021;-91
2022/05/07 00:42:18;;;;;;;57.17;35.40;;;;;;;;;;6188069;23;20024;-90
2022/05/07 00:44:44;;;;;;;51.60;34.42;;;;;;;;;;6187942;23;20056;-91
2022/05/07 00:47:24;;;;;;;56.25;35.22;;;;;;;;;;6161331;23;20021;-89
2022/05/07 00:49:51;;;;;;;60.75;34.45;;;;;;;;;;6186184;23;20017;-92
2022/05/07 00:52:20;;;;;;;56.78;33.70;;;;;;;;;;6161457;23;20096;-90
2022/05/07 00:54:47;;;;;;;50.08;33.97;;;;;;;;;;6186174;23;20021;-90
2022/05/07 00:57:14;;;;;;;52.85;33.83;;;;;;;;;;6162398;23;20462;-91
2022/05/07 00:59:40;;;;;;;46.25;32.53;;;;;;;;;;6161964;23;20025;-90
2022/05/07 01:02:06;;;;;;;56.40;34.10;;;;;;;;;;6161834;23;20076;-91
2022/05/07 01:04:35;;;;;;;51.70;32.47;;;;;;;;;;6165576;23;20100;-90
2022/05/07 01:07:04;;;;;;;55.55;33.97;;;;;;;;;;6163425;23;20485;-90
2022/05/07 01:09:31;;;;;;;44.95;32.00;;;;;;;;;;6185447;23;20039;-91
2022/05/07 01:11:57;;;;;;;63.10;36.90;;;;;;;;;;6161996;23;20013;-92
2022/05/07 01:14:23;;;;;;;53.38;34.10;;;;;;;;;;6164660;23;20028;-90
2022/05/07 01:16:50;;;;;;;65.53;36.80;;;;;;;;;;6167403;23;20040;-90
2022/05/07 01:19:16;;;;;;;53.85;33.55;;;;;;;;;;6169637;23;20021;-92
2022/05/07 01:21:42;;;;;;;53.28;34.33;;;;;;;;;;6161511;23;20020;-90
2022/05/07 01:24:08;;;;;;;51.05;34.40;;;;;;;;;;6187470;23;20025;-91
2022/05/07 01:26:34;;;;;;;50.80;33.05;;;;;;;;;;6163411;23;20032;-89
2022/05/07 01:29:01;;;;;;;55.65;35.33;;;;;;;;;;6163533;23;20021;-89
2022/05/07 01:31:30;;;;;;;52.58;34.35;;;;;;;;;;6186650;23;20025;-89
2022/05/07 01:33:56;;;;;;;49.83;34.25;;;;;;;;;;6193614;23;20021;-89
2022/05/07 01:36:22;;;;;;;52.33;34.55;;;;;;;;;;6170921;23;20029;-91
2022/05/07 01:38:48;;;;;;;55.28;34.03;;;;;;;;;;6168889;23;20075;-89
2022/05/07 01:41:15;;;;;;;55.50;34.45;;;;;;;;;;6167202;23;20450;-88
2022/05/07 01:43:41;;;;;;;62.78;35.42;;;;;;;;;;6165645;23;20017;-88
2022/05/07 01:48:09;;;;;;;56.17;34.08;;;;;;;;;;6165836;23;20025;-89
2022/05/07 01:48:53;;;;;;;51.75;32.08;;;;;;;;;;6188390;23;20029;-90
2022/05/07 01:51:19;;;;;;;53.42;32.00;;;;;;;;;;6164330;23;20157;-90
2022/05/07 01:53:45;;;;;;;56.63;33.70;;;;;;;;;;6162729;23;20071;-89
2022/05/07 01:56:11;;;;;;;46.95;32.22;;;;;;;;;;6162754;23;20025;-93
2022/05/07 01:58:37;;;;;;;52.25;33.47;;;;;;;;;;6162271;23;20458;-89
2022/05/07 02:01:03;;;;;;;49.20;32.40;;;;;;;;;;6161895;23;20100;-89
2022/05/07 02:03:30;;;;;;;54.30;32.95;;;;;;;;;;6186888;23;20024;-89
2022/05/07 02:05:56;;;;;;;49.70;33.47;;;;;;;;;;6161805;23;20092;-89
2022/05/07 02:08:22;;;;;;;44.65;31.38;;;;;;;;;;6162941;23;20032;-90
2022/05/07 02:10:48;;;;;;;44.38;33.10;;;;;;;;;;6162287;23;20024;-89
2022/05/07 02:13:14;;;;;;;44.13;30.13;;;;;;;;;;6186561;23;20096;-89
2022/05/07 02:15:40;;;;;;;48.30;32.63;;;;;;;;;;6161892;23;20017;-88
2022/05/07 02:18:07;;;;;;;54.92;31.52;;;;;;;;;;6161766;23;20023;-89
2022/05/07 02:20:34;;;;;;;49.17;30.80;;;;;;;;;;6162155;23;20029;-90
2022/05/07 02:23:00;;;;;;;54.83;33.42;;;;;;;;;;6163470;23;20073;-91
2022/05/07 02:25:26;;;;;;;50.33;32.90;;;;;;;;;;6164403;23;20029;-93
2022/05/07 02:27:53;;;;;;;48.75;31.30;;;;;;;;;;6162574;23;20043;-91
2022/05/07 02:30:19;;;;;;;45.88;31.90;;;;;;;;;;6162195;23;20027;-89
2022/05/07 02:32:49;;;;;;;54.65;31.80;;;;;;;;;;6166284;23;20024;-91
2022/05/07 02:35:15;;;;;;;48.13;30.58;;;;;;;;;;6163564;23;20024;-92
2022/05/07 02:37:41;;;;;;;46.60;31.95;;;;;;;;;;6164042;23;20021;-92
2022/05/07 02:40:08;;;;;;;50.78;30.88;;;;;;;;;;6163574;23;20388;-89
2022/05/07 02:42:36;;;;;;;46.60;30.08;;;;;;;;;;6162815;23;20025;-92
2022/05/07 02:45:03;;;;;;;47.10;30.10;;;;;;;;;;6162296;23;20146;-90
2022/05/07 02:47:30;;;;;;;49.83;30.60;;;;;;;;;;6162629;23;20064;-92
2022/05/07 02:49:56;;;;;;;52.00;31.48;;;;;;;;;;6163514;23;20078;-92
2022/05/07 02:52:22;;;;;;;48.78;31.92;;;;;;;;;;6161723;23;20021;-89
2022/05/07 02:54:48;;;;;;;44.25;29.00;;;;;;;;;;6162518;23;20475;-92
2022/05/07 02:57:15;;;;;;;43.85;30.27;;;;;;;;;;6163436;23;20057;-91
2022/05/07 02:59:41;;;;;;;45.92;30.42;;;;;;;;;;6186341;23;20025;-89
2022/05/07 03:02:08;;;;;;;48.13;29.83;;;;;;;;;;6163761;23;20028;-89
2022/05/07 03:04:34;;;;;;;43.90;29.42;;;;;;;;;;6162177;23;20017;-91
2022/05/07 03:07:01;;;;;;;39.67;28.00;;;;;;;;;;6187088;23;20152;-91
2022/05/07 03:09:27;;;;;;;45.80;28.83;;;;;;;;;;6161272;23;20024;-90
2022/05/07 03:11:53;;;;;;;42.70;31.00;;;;;;;;;;6186201;23;20100;-90
2022/05/07 03:14:19;;;;;;;57.20;31.00;;;;;;;;;;6186759;23;20021;-90
2022/05/07 03:16:47;;;;;;;44.25;29.63;;;;;;;;;;6187792;23;20032;-90
2022/05/07 03:19:13;;;;;;;45.33;30.40;;;;;;;;;;6162487;23;20048;-91
2022/05/07 03:21:39;;;;;;;39.55;28.83;;;;;;;;;;6161838;23;20099;-92
2022/05/07 03:24:05;;;;;;;44.08;29.90;;;;;;;;;;6186157;23;20448;-91
2022/05/07 03:26:32;;;;;;;42.05;31.23;;;;;;;;;;6185858;23;20057;-90
2022/05/07 03:28:58;;;;;;;42.55;28.60;;;;;;;;;;6161628;23;20040;-91
2022/05/07 03:31:24;;;;;;;43.92;29.15;;;;;;;;;;6162302;23;20021;-91
2022/05/07 03:33:50;;;;;;;42.08;28.60;;;;;;;;;;6162728;23;20100;-90
2022/05/07 03:36:16;;;;;;;38.47;29.27;;;;;;;;;;6162810;23;20017;-89
2022/05/07 03:38:42;;;;;;;44.92;28.92;;;;;;;;;;6163762;23;20155;-92
2022/05/07 03:41:09;;;;;;;35.75;27.45;;;;;;;;;;6161577;23;20032;-91
2022/05/07 03:43:39;;;;;;;39.50;28.85;;;;;;;;;;6161168;23;20021;-90
2022/05/07 03:46:05;;;;;;;44.10;29.63;;;;;;;;;;6160731;23;20422;-89
2022/05/07 03:48:32;;;;;;;45.28;30.55;;;;;;;;;;6160931;23;20454;-92
2022/05/07 03:50:58;;;;;;;38.42;28.08;;;;;;;;;;6161451;23;20021;-90
2022/05/07 03:53:30;;;;;;;39.00;28.98;;;;;;;;;;6161493;23;20095;-92
2022/05/07 03:56:00;;;;;;;40.78;28.88;;;;;;;;;;6161016;23;20027;-91
2022/05/07 03:58:26;;;;;;;38.95;26.90;;;;;;;;;;6162049;23;20402;-90
2022/05/07 04:00:53;;;;;;;44.10;30.27;;;;;;;;;;6162172;23;20024;-90
2022/05/07 04:03:20;;;;;;;39.67;29.05;;;;;;;;;;6161953;23;20025;-90
2022/05/07 04:05:46;;;;;;;46.17;28.05;;;;;;;;;;6163889;23;20024;-90
2022/05/07 04:08:12;;;;;;;42.65;31.52;;;;;;;;;;6163866;23;20025;-90
2022/05/07 04:10:40;;;;;;;45.05;30.75;;;;;;;;;;6163482;23;20036;-92
2022/05/07 04:13:07;;;;;;;47.20;30.45;;;;;;;;;;6162459;23;20028;-90
2022/05/07 04:15:33;;;;;;;42.90;27.50;;;;;;;;;;6162744;23;20029;-90
2022/05/07 04:17:59;;;;;;;37.80;27.50;;;;;;;;;;6188268;23;20063;-90
2022/05/07 04:20:25;;;;;;;37.75;26.65;;;;;;;;;;6163638;23;20021;-91
2022/05/07 04:22:51;;;;;;;35.15;26.13;;;;;;;;;;6159369;23;20065;-89
2022/05/07 04:25:17;;;;;;;43.08;29.65;;;;;;;;;;6158688;23;20021;-91
2022/05/07 04:27:43;;;;;;;36.63;27.60;;;;;;;;;;6185514;23;20088;-89
2022/05/07 04:30:10;;;;;;;38.45;27.33;;;;;;;;;;6185071;23;20019;-90
2022/05/07 04:32:36;;;;;;;39.78;29.40;;;;;;;;;;6159991;23;20025;-89
2022/05/07 04:35:02;;;;;;;47.63;30.58;;;;;;;;;;6160287;23;20450;-90
2022/05/07 04:37:28;;;;;;;41.13;29.50;;;;;;;;;;6160281;23;20017;-89
2022/05/07 04:39:54;;;;;;;45.72;29.27;;;;;;;;;;6160970;23;20028;-90
2022/05/07 04:42:20;;;;;;;45.97;29.83;;;;;;;;;;6186033;23;20061;-89
2022/05/07 04:44:46;;;;;;;47.08;31.17;;;;;;;;;;6161546;23;20079;-89
2022/05/07 04:47:12;;;;;;;41.13;30.38;;;;;;;;;;6184884;23;20025;-88
2022/05/07 04:49:38;;;;;;;43.53;29.77;;;;;;;;;;6160181;23;20455;-89
2022/05/07 04:52:05;;;;;;;41.95;29.88;;;;;;;;;;6160075;23;20455;-88
2022/05/07 04:54:32;;;;;;;40.70;28.35;;;;;;;;;;6159849;23;20025;-89
2022/05/07 04:56:58;;;;;;;45.85;26.95;;;;;;;;;;6160092;23;20023;-88
2022/05/07 04:59:24;;;;;;;47.85;28.40;;;;;;;;;;6159954;23;20025;-90
2022/05/07 05:01:50;;;;;;;45.55;29.15;;;;;;;;;;6185840;23;20096;-89
2022/05/07 05:04:16;;;;;;;40.65;29.55;;;;;;;;;;6184860;23;20052;-89
2022/05/07 05:06:43;;;;;;;44.53;30.63;;;;;;;;;;6184899;23;20024;-89
2022/05/07 05:09:09;;;;;;;39.20;28.48;;;;;;;;;;6185379;23;20017;-91
2022/05/07 05:11:37;;;;;;;44.05;29.77;;;;;;;;;;6161668;23;20017;-89
2022/05/07 05:16:48;;;;;;;43.05;29.55;;;;;;;;;;6184813;23;20075;-88
2022/05/07 05:19:15;;;;;;;44.38;28.88;;;;;;;;;;6185210;23;20023;-88
2022/05/07 05:21:41;;;;;;;44.10;29.88;;;;;;;;;;6160214;23;20021;-90
2022/05/07 05:24:07;;;;;;;42.28;30.25;;;;;;;;;;6159931;23;20021;-90
2022/05/07 05:26:33;;;;;;;45.38;30.10;;;;;;;;;;6159972;23;20477;-92
2022/05/07 05:28:59;;;;;;;43.78;29.40;;;;;;;;;;6160079;23;20354;-92
2022/05/07 05:31:25;;;;;;;46.33;29.85;;;;;;;;;;6185074;23;20335;-94
2022/05/07 05:33:51;;;;;;;40.33;29.40;;;;;;;;;;6159996;23;20536;-91
2022/05/07 05:36:17;;;;;;;43.55;30.42;;;;;;;;;;6185749;23;20425;-92
2022/05/07 05:38:43;;;;;;;43.30;30.67;;;;;;;;;;6160267;23;20159;-91
2022/05/07 05:41:10;;;;;;;40.42;29.73;;;;;;;;;;6160132;23;20021;-95
2022/05/07 05:43:40;;;;;;;48.22;28.85;;;;;;;;;;6160971;23;20023;-93
2022/05/07 05:46:06;;;;;;;48.17;31.08;;;;;;;;;;6161051;23;20025;-90
2022/05/07 05:48:32;;;;;;;42.17;29.80;;;;;;;;;;6159856;23;20056;-89
2022/05/07 05:50:59;;;;;;;45.60;30.60;;;;;;;;;;6186180;23;20021;-93
2022/05/07 05:53:25;;;;;;;38.25;27.42;;;;;;;;;;6185623;23;20094;-95
2022/05/07 05:55:52;;;;;;;48.08;30.25;;;;;;;;;;6185621;23;20525;-93
2022/05/07 05:58:18;;;;;;;43.45;30.10;;;;;;;;;;6160775;23;20032;-92
2022/05/07 06:00:44;;;;;;;39.15;28.52;;;;;;;;;;6185079;23;20024;-90
2022/05/07 06:03:10;;;;;;;49.92;29.40;;;;;;;;;;6160276;23;20032;-95
2022/05/07 06:05:37;;;;;;;40.47;28.95;;;;;;;;;;6161854;23;20013;-95
2022/05/07 06:08:03;;;;;;;40.65;28.05;;;;;;;;;;6185837;23;20029;-93
2022/05/07 06:10:29;;;;;;;41.92;28.20;;;;;;;;;;6184802;23;20458;-89
2022/05/07 06:12:55;;;;;;;47.00;29.50;;;;;;;;;;6160852;23;20052;-89
2022/05/07 06:15:22;;;;;;;43.05;30.23;;;;;;;;;;6159157;23;20025;-87
2022/05/07 06:17:48;;;;;;;36.10;26.77;;;;;;;;;;6183990;23;20493;-87
2022/05/07 06:20:14;;;;;;;37.67;28.05;;;;;;;;;;6183867;23;20025;-88
2022/05/07 06:22:40;;;;;;;41.78;28.17;;;;;;;;;;6159266;23;20024;-88
2022/05/07 06:27:51;;;;;;;34.78;26.45;;;;;;;;;;6186610;23;20100;-88
2022/05/07 06:30:17;;;;;;;38.05;25.60;;;;;;;;;;6187749;23;20063;-89
2022/05/07 06:32:43;;;;;;;38.38;24.52;;;;;;;;;;6163695;23;20025;-88
2022/05/07 06:35:10;;;;;;;36.85;25.45;;;;;;;;;;6163060;23;20050;-88
2022/05/07 06:37:37;;;;;;;32.90;25.02;;;;;;;;;;6188924;23;20048;-92
2022/05/07 06:40:05;;;;;;;32.83;22.77;;;;;;;;;;6162850;23;20017;-89
2022/05/07 06:42:33;;;;;;;29.25;22.52;;;;;;;;;;6188855;23;20051;-91
2022/05/07 06:44:59;;;;;;;31.83;23.88;;;;;;;;;;6163549;23;20025;-90
2022/05/07 06:47:26;;;;;;;33.38;24.52;;;;;;;;;;6164002;23;20021;-92
2022/05/07 06:49:52;;;;;;;33.45;24.45;;;;;;;;;;6163272;23;20079;-89
2022/05/07 06:52:18;;;;;;;36.92;23.85;;;;;;;;;;6163714;23;20040;-87
2022/05/07 06:54:44;;;;;;;31.48;21.90;;;;;;;;;;6160856;23;20025;-88
2022/05/07 06:57:11;;;;;;;29.88;21.40;;;;;;;;;;6185497;23;20056;-88
2022/05/07 06:59:37;;;;;;;29.38;22.33;;;;;;;;;;6161394;23;20032;-90
2022/05/07 07:02:04;;;;;;;36.83;24.25;;;;;;;;;;6161970;23;20104;-88
2022/05/07 07:04:30;;;;;;;30.15;21.95;;;;;;;;;;6160835;23;20459;-89
2022/05/07 07:06:57;;;;;;;30.55;22.92;;;;;;;;;;6161576;23;20021;-90
2022/05/07 07:09:23;;;;;;;26.38;21.23;;;;;;;;;;6161067;23;20067;-87
2022/05/07 07:11:49;;;;;;;28.13;22.08;;;;;;;;;;6186124;23;20498;-89
2022/05/07 07:14:15;;;;;;;31.25;21.33;;;;;;;;;;6160816;23;20458;-88
2022/05/07 07:16:41;;;;;;;27.77;21.63;;;;;;;;;;6185587;23;20540;-89
2022/05/07 07:19:07;;;;;;;32.05;22.67;;;;;;;;;;6185622;23;20504;-88
2022/05/07 07:21:33;;;;;;;35.63;26.17;;;;;;;;;;6186102;23;20327;-90
2022/05/07 07:24:02;;;;;;;39.85;26.98;;;;;;;;;;6161150;23;20047;-87
2022/05/07 07:26:28;;;;;;;34.78;26.10;;;;;;;;;;6185942;23;20021;-88
2022/05/07 07:28:56;;;;;;;34.83;25.60;;;;;;;;;;6187158;23;20012;-91
2022/05/07 07:31:22;;;;;;;46.85;31.98;;;;;;;;;;6186590;23;20021;-88
2022/05/07 07:33:48;;;;;;;50.40;34.67;;;;;;;;;;6185408;23;20060;-88
2022/05/07 07:36:14;;;;;;;48.60;33.58;;;;;;;;;;6160390;23;20025;-87
2022/05/07 07:38:40;;;;;;;54.17;35.53;;;;;;;;;;6160543;23;20017;-88
2022/05/07 07:41:07;;;;;;;58.55;36.67;;;;;;;;;;6160482;23;20461;-88
2022/05/07 07:43:33;;;;;;;62.58;39.47;;;;;;;;;;6185286;23;20032;-88
2022/05/07 07:48:46;;;;;;;58.08;39.22;;;14.90;99.90;;;;;;6186045;23;20021;-89
2022/05/07 07:51:12;;;;;;;69.97;40.50;;;;;;;;;;6160154;23;20079;-89
2022/05/07 07:53:39;;;;;;;63.15;40.75;;;;;;;;;;6186563;23;20028;-89
2022/05/07 07:56:07;;;;;;;60.63;38.13;;;;;;;;;;6160883;23;20013;-89
2022/05/07 07:58:33;;;;;;;74.13;41.35;;;;;;;;;;6161949;23;20025;-89
2022/05/07 08:00:59;;;;;;;66.32;40.60;;;;;;;;;;6160726;23;20109;-89
2022/05/07 08:03:25;;;;;;;69.63;41.00;;;;;;;;;;6160509;23;20021;-88
2022/05/07 08:05:53;;;;;;;69.15;41.38;;;;;;;;;;6160665;23;20071;-90
2022/05/07 08:13:53;;;;;;;67.47;41.05;;;;;;;;;;6187286;23;20112;-90
2022/05/07 08:16:19;;;;;;;60.97;40.92;;;;;;;;;;6186977;23;20354;-90
2022/05/07 08:18:45;;;;;;;59.67;38.03;;;;;;;;;;6162296;23;20104;-88
2022/05/07 08:21:12;;;;;;;62.90;38.95;;;;;;;;;;6163199;23;20031;-89
2022/05/07 08:23:39;;;;;;;58.13;39.70;;;;;;;;;;6187835;23;20025;-92
2022/05/07 08:26:06;;;;;;;69.55;39.08;;;;;;;;;;6161835;23;20025;-89
2022/05/07 08:28:32;;;;;;;55.95;37.45;;;;;;;;;;6161866;23;20069;-90
2022/05/07 08:30:58;;;;;;;55.88;36.55;;;;;;;;;;6161969;23;20028;-90
2022/05/07 08:33:25;;;;;;;48.83;35.38;;;;;;;;;;6187637;23;20052;-90
2022/05/07 08:35:51;;;;;;;53.67;36.03;;;;;;;;;;6162509;23;20021;-92
2022/05/07 08:38:18;;;;;;;56.58;36.92;;;;;;;;;;6187063;23;20112;-89
2022/05/07 08:40:44;;;;;;;55.90;37.10;;;;;;;;;;6162740;23;20017;-93
2022/05/07 08:43:10;;;;;;;57.83;36.20;;;;;;;;;;6162772;23;20029;-93
2022/05/07 08:45:39;;;;;;;50.53;34.72;;;15.20;99.90;;;;;;6162476;23;20021;-91
2022/05/07 08:48:06;;;;;;;53.67;36.55;;;;;;;;;;6187645;23;20079;-89
2022/05/07 08:50:32;;;;;;;54.22;36.45;;;;;;;;;;6186697;23;20024;-89
2022/05/07 08:52:58;;;;;;;62.42;39.05;;;;;;;;;;6162769;23;20025;-91
2022/05/07 08:55:24;;;;;;;56.17;36.13;;;;;;;;;;6162784;23;20323;-90
2022/05/07 08:57:53;;;;;;;57.53;38.58;;;15.40;99.90;;;;;;6162377;23;20455;-90
2022/05/07 09:00:20;;;;;;;53.42;37.03;;;;;;;;;;6162119;23;20023;-93
2022/05/07 09:02:48;;;;;;;56.05;36.40;;;;;;;;;;6162922;23;20021;-92
2022/05/07 09:05:18;;;;;;;56.58;33.97;;;15.40;99.90;;;;;;6162669;23;20060;-92
2022/05/07 09:08:00;;;;;;;55.72;37.45;;;;;;;;;;6187088;23;20025;-93
2022/05/07 09:10:33;;;;;;;53.45;35.85;;;15.30;99.90;;;;;;6163382;23;20462;-87
2022/05/07 09:13:08;;;;;;;54.97;33.72;;;;;;;;;;6138189;23;20164;-90
2022/05/07 09:15:35;;;;;;;54.67;32.60;;;;;;;;;;6187493;23;20021;-89
2022/05/07 09:18:01;;;;;;;48.78;31.70;;;;;;;;;;6187984;23;20024;-90
2022/05/07 09:20:29;;;;;;;47.00;31.80;;;;;;;;;;6162906;23;20031;-90
2022/05/07 09:22:55;;;;;;;50.40;30.30;;;;;;;;;;6187829;23;20025;-94
2022/05/07 09:25:26;;;;;;;49.75;29.80;;;15.60;99.90;;;;;;6189624;23;20024;-90
2022/05/07 09:27:57;;;;;;;45.75;29.40;;;;;;;;;;6166699;23;20032;-89
2022/05/07 09:30:30;;;;;;;41.95;27.15;;;;;;;;;;6193409;23;20021;-89
2022/05/07 09:32:57;;;;;;;;;;;15.80;99.90;;;;;;6194319;23;20025;-92
2022/05/07 09:38:14;;;;;;;42.13;28.05;;;;;;;;;;6197791;23;20032;-89
2022/05/07 09:40:42;;;;;;;41.72;27.65;;;16.00;99.90;;;;;;6167500;23;20104;-89
2022/05/07 09:43:10;;;;;;;50.22;31.15;;;16.20;99.90;;;;;;6166209;23;20032;-89
2022/05/07 09:45:39;;;;;;;44.50;31.65;;;16.10;99.90;;;;;;6192224;23;20021;-92
2022/05/07 09:48:10;;;;;;;45.63;29.55;;;;;;;;;;6167601;23;20092;-89
2022/05/07 09:58:41;;;;;;;46.05;29.73;;;;;;;;;;6193878;23;20021;-91
2022/05/07 10:01:26;;;;;;;52.60;33.33;;;;;;;;;;6165773;23;20017;-93
2022/05/07 10:04:25;;;;;;;60.75;36.75;;;16.40;99.90;;;;;;6188592;23;20035;-90
2022/05/07 10:07:02;;;;;;;67.40;40.35;;;;;;;;;;6189628;23;20358;-93
2022/05/07 10:09:43;;;;;;;64.10;38.78;;;;;;;;;;6163535;23;20021;-91
2022/05/07 10:12:11;;;;;;;62.90;39.50;;;;;;;;;;6188606;23;20036;-92
2022/05/07 10:14:50;;;;;;;56.88;36.13;;;;;;;;;;6194209;23;20482;-92
2022/05/07 10:17:29;;;;;;;53.35;36.20;;;16.10;99.90;;;;;;6195647;23;20017;-95
2022/05/07 10:20:04;;;;;;;56.88;38.88;;;;;;;;;;6193902;23;20028;-92
2022/05/07 10:22:30;;;;;;;56.33;37.03;;;;;;;;;;6170246;23;20029;-92
2022/05/07 10:25:04;;;;;;;58.95;35.83;;;;;;;;;;6169625;23;20021;-93
2022/05/07 10:27:38;;;;;;;56.80;36.83;;;;;;;;;;6191454;23;20354;-93
2022/05/07 10:30:09;;;;;;;61.45;36.33;;;;;;;;;;6167377;23;20020;-92
2022/05/07 10:33:01;;;;;;;55.08;35.45;;;16.30;99.90;;;;;;6167870;23;20521;-93
2022/05/07 10:35:40;;;;;;;52.63;34.90;;;;;;;;;;6192608;23;20324;-90
2022/05/07 10:38:27;;;;;;;49.80;33.00;;;16.10;99.90;;;;;;6165319;23;20024;-90
2022/05/07 10:40:53;;;;;;;56.03;33.38;;;;;;;;;;6164048;23;20025;-88
2022/05/07 10:43:29;;;;;;;49.42;32.55;;;16.40;99.90;;;;;;6163389;23;20017;-89
2022/05/07 10:46:07;;;;;;;46.22;29.77;;;16.50;99.90;;;;;;6189481;23;20017;-90
2022/05/07 10:48:56;;;;;;;45.95;31.42;;;;;;;;;;6165024;23;20036;-90
2022/05/07 10:51:32;;;;;;;44.05;28.08;;;;;;;;;;6188984;23;20025;-89
2022/05/07 10:54:03;;;;;;;39.42;26.50;;;16.30;99.90;;;;;;6164257;23;20067;-89
2022/05/07 10:56:35;;;;;;;33.97;22.25;;;;;;;;;;6166270;23;20099;-90
2022/05/07 10:59:01;;;;;;;37.17;23.70;;;16.40;99.90;;;;;;6163117;23;20028;-92
2022/05/07 11:01:29;;;;;;;35.63;22.27;;;;;;;;;;6163221;23;20025;-89
2022/05/07 11:04:07;;;;;;;35.13;22.10;;;16.60;99.90;;;;;;6162486;23;20021;-90
2022/05/07 11:06:33;;;;;;;33.97;21.73;;;;;;;;;;6186857;23;20020;-89
2022/05/07 11:08:59;;;;;;;31.42;21.65;;;;;;;;;;6187037;23;20398;-90
2022/05/07 11:11:25;;;;;;;29.80;19.27;;;;;;;;;;6162970;23;20043;-89
2022/05/07 11:13:53;;;;;;;29.88;19.83;;;16.50;99.90;;;;;;6162252;23;20021;-88
2022/05/07 11:16:19;;;;;;;25.58;17.88;;;;;;;;;;6162822;23;20032;-89
2022/05/07 11:18:47;;;;;;;16.85;11.75;;;;;;;;;;6163525;23;20068;-89
2022/05/07 11:21:14;;;;;;;13.63;9.27;;;;;;;;;;6163507;23;20021;-87
2022/05/07 11:23:44;;;;;;;11.98;9.02;;;;;;;;;;6162642;23;20048;-88
2022/05/07 11:26:16;;;;;;;15.80;9.63;;;16.70;99.90;;;;;;6164871;23;20414;-87
2022/05/07 11:28:43;;;;;;;18.38;10.52;;;;;;;;;;6189921;23;20441;-89
2022/05/07 11:31:10;;;;;;;15.13;9.38;;;;;;;;;;6187749;23;20021;-88
2022/05/07 11:33:36;;;;;;;13.32;10.30;;;;;;;;;;6162697;23;20036;-88
2022/05/07 11:36:07;;;;;;;13.13;9.27;;;16.20;99.90;;;;;;6187138;23;20490;-90
2022/05/07 11:38:42;;;;;;;14.40;10.10;;;16.30;99.90;;;;;;6187477;23;20542;-89
2022/05/07 11:41:09;;;;;;;11.15;9.40;;;;;;;;;;6163425;23;20446;-91
2022/05/07 11:46:20;;;;;;;15.35;11.07;;;;;;;;;;6188511;23;20017;-89
2022/05/07 11:48:46;;;;;;;13.63;10.25;;;;;;;;;;6187185;23;20029;-90
2022/05/07 11:51:23;;;;;;;16.23;11.00;;;;;;;;;;6161716;23;20021;-91
2022/05/07 11:53:49;;;;;;;16.13;12.43;;;;;;;;;;6160861;23;20087;-89
2022/05/07 11:56:15;;;;;;;16.75;10.45;;;;;;;;;;6161881;23;20021;-90
2022/05/07 11:58:42;;;;;;;17.65;10.75;;;16.50;99.90;;;;;;6160626;23;20029;-89
2022/05/07 12:01:18;;;;;;;15.40;11.43;;;;;;;;;;6185667;23;20013;-90
2022/05/07 12:03:44;;;;;;;21.50;12.13;;;;;;;;;;6161352;23;20022;-91
2022/05/07 12:06:12;;;;;;;16.85;11.75;;;;;;;;;;6160984;23;20017;-89
2022/05/07 12:08:38;;;;;;;16.15;10.93;;;;;;;;;;6161681;23;20021;-89
2022/05/07 12:11:04;;;;;;;18.00;10.43;;;;;;;;;;6160617;23;20021;-90
2022/05/07 12:13:31;;;;;;;13.77;9.90;;;;;;;;;;6185645;23;20092;-89
2022/05/07 12:18:47;;;;;;;15.90;11.63;;;;;;;;;;6185442;23;20020;-89
2022/05/07 12:21:13;;;;;;;19.25;10.73;;;;;;;;;;6186085;23;20025;-89
2022/05/07 12:31:55;;;;;;;19.45;14.23;;;;;;;;;;6185504;23;20032;-90
2022/05/07 12:34:21;;;;;;;21.50;14.38;;;;;;;;;;6187972;23;20017;-91
2022/05/07 12:36:48;;;;;;;21.88;14.40;;;;;;;;;;6161600;23;20028;-92
2022/05/07 12:39:14;;;;;;;19.15;14.00;;;;;;;;;;6161112;23;20051;-91
2022/05/07 12:41:41;;;;;;;22.92;14.43;;;;;;;;;;6188803;23;20060;-89
2022/05/07 12:44:07;;;;;;;19.50;12.95;;;;;;;;;;6164139;23;20044;-90
2022/05/07 12:46:33;;;;;;;18.63;12.60;;;;;;;;;;6162908;23;20029;-92
2022/05/07 12:48:59;;;;;;;15.30;11.32;;;;;;;;;;6186801;23;20096;-91
2022/05/07 12:51:26;;;;;;;12.48;10.68;;;16.80;99.90;;;;;;6161840;23;20083;-91
2022/05/07 12:53:55;;;;;;;12.50;8.82;;;17.30;99.90;;;;;;6161624;23;20100;-90
2022/05/07 12:56:24;;;;;;;8.88;6.97;;;;;;;;;;6161695;23;20103;-90
2022/05/07 12:58:50;;;;;;;17.08;10.10;;;;;;;;;;6163006;23;20017;-88
2022/05/07 13:01:16;;;;;;;15.27;9.85;;;;;;;;;;6164174;23;20017;-89
2022/05/07 13:03:43;;;;;;;11.32;9.57;;;;;;;;;;6164617;23;20059;-90
2022/05/07 13:06:09;;;;;;;14.23;9.00;;;;;;;;;;6167027;23;20021;-90
2022/05/07 13:08:35;;;;;;;17.17;11.00;;;;;;;;;;6190631;23;20017;-92
2022/05/07 13:11:01;;;;;;;13.38;9.25;;;;;;;;;;6163628;23;20112;-90
2022/05/07 13:13:27;;;;;;;12.23;8.48;;;;;;;;;;6165067;23;20024;-90
2022/05/07 13:15:53;;;;;;;11.88;8.63;;;;;;;;;;6189081;23;20060;-90
2022/05/07 13:18:20;;;;;;;10.65;8.35;;;;;;;;;;6164724;23;20021;-89
2022/05/07 13:20:48;;;;;;;10.80;8.93;;;;;;;;;;6189939;23;20017;-90
2022/05/07 13:23:14;;;;;;;9.77;6.53;;;;;;;;;;6163867;23;20032;-90
2022/05/07 13:25:41;;;;;;;8.93;6.78;;;;;;;;;;6161682;23;20028;-93
2022/05/07 13:28:07;;;;;;;9.30;6.85;;;;;;;;;;6164317;23;20057;-90
2022/05/07 13:30:33;;;;;;;8.85;6.55;;;;;;;;;;6163351;23;20025;-92
2022/05/07 13:32:59;;;;;;;8.52;6.78;;;;;;;;;;6137504;23;20021;-92
2022/05/07 13:35:25;;;;;;;9.55;6.97;;;;;;;;;;6161958;23;20355;-91
2022/05/07 13:37:51;;;;;;;11.88;8.32;;;;;;;;;;6160072;23;20025;-90
2022/05/07 13:40:17;;;;;;;13.77;8.90;;;;;;;;;;6161069;23;20059;-88
2022/05/07 13:42:43;;;;;;;17.40;9.75;;;;;;;;;;6160002;23;20025;-90
2022/05/07 13:45:11;;;;;;;18.10;9.80;;;17.30;99.90;;;;;;6161572;23;20386;-90
2022/05/07 13:47:38;;;;;;;15.48;10.18;;;17.20;99.90;;;;;;6186868;23;20091;-89
2022/05/07 13:50:08;;;;;;;13.98;9.82;;;17.20;99.90;;;;;;6163794;23;20096;-91
2022/05/07 13:52:39;;;;;;;13.13;9.02;;;17.30;99.90;;;;;;6165024;23;20413;-89
2022/05/07 13:55:07;;;;;;;13.80;9.32;;;17.40;99.90;;;;;;6164573;23;20013;-91
2022/05/07 13:57:33;;;;;;;14.57;9.10;;;;;;;;;;6188903;23;20117;-93
2022/05/07 14:00:00;;;;;;;9.93;7.40;;;;;;;;;;6165739;23;20021;-92
2022/05/07 14:02:31;;;;;;;9.88;7.43;;;17.50;99.90;;;;;;6164588;23;20028;-94
2022/05/07 14:04:58;;;;;;;12.90;7.25;;;;;;;;;;6187772;23;20013;-93
2022/05/07 14:07:24;;;;;;;9.13;6.88;;;;;;;;;;6163646;23;20020;-90
2022/05/07 14:09:51;;;;;;;10.18;6.82;;;;;;;;;;6189664;23;20508;-89
2022/05/07 14:12:18;;;;;;;8.50;6.60;;;17.30;99.90;;;;;;6162788;23;20025;-92
2022/05/07 14:14:44;;;;;;;7.63;6.25;;;;;;;;;;6163540;23;20017;-90
2022/05/07 14:17:11;;;;;;;8.32;6.22;;;;;;;;;;6162101;23;20354;-92
2022/05/07 14:19:37;;;;;;;8.15;7.03;;;;;;;;;;6163804;23;20055;-93
2022/05/07 14:22:03;;;;;;;10.25;6.38;;;;;;;;;;6163384;23;20025;-89
2022/05/07 14:24:30;;;;;;;19.77;7.75;;;;;;;;;;6161675;23;20028;-91
2022/05/07 14:26:56;;;;;;;7.13;6.20;;;;;;;;;;6187354;23;20021;-92
2022/05/07 14:29:22;;;;;;;7.60;6.50;;;;;;;;;;6161420;23;20050;-93
2022/05/07 14:31:50;;;;;;;8.90;6.45;;;;;;;;;;6162065;23;20028;-89
2022/05/07 14:34:16;;;;;;;8.88;6.97;;;;;;;;;;6162560;23;20161;-92
2022/05/07 14:36:42;;;;;;;7.95;6.45;;;;;;;;;;6163032;23;20104;-91
2022/05/07 14:39:08;;;;;;;6.65;5.30;;;;;;;;;;6186660;23;20021;-90
2022/05/07 14:41:35;;;;;;;7.70;5.95;;;;;;;;;;6186489;23;20100;-91
2022/05/07 14:44:01;;;;;;;9.77;5.47;;;;;;;;;;6186575;23;20021;-92
2022/05/07 14:46:27;;;;;;;7.88;5.15;;;;;;;;;;6186670;23;20391;-92
2022/05/07 14:48:53;;;;;;;4.90;4.45;;;;;;;;;;6161445;23;20099;-92
2022/05/07 14:51:20;;;;;;;5.07;4.10;;;;;;;;;;6162671;23;20079;-92